createdAt,value
2024-05-09T00:00:35.212Z,1009.03
2024-05-09T00:01:31.028Z,1008.96
2024-05-09T00:02:29.040Z,1009.03
2024-05-09T00:03:29.003Z,1009.02
2024-05-09T00:04:28.983Z,1009.02
2024-05-09T00:05:29.111Z,1008.98
2024-05-09T00:06:28.976Z,1009.03
2024-05-09T00:07:28.970Z,1009.07
2024-05-09T00:08:29.133Z,1009.05
2024-05-09T00:09:28.920Z,1009.04
2024-05-09T00:10:35.579Z,1009.02
2024-05-09T00:11:31.122Z,1008.98
2024-05-09T00:12:28.937Z,1008.97
2024-05-09T00:13:28.929Z,1009.03
2024-05-09T00:14:28.921Z,1008.98
2024-05-09T00:15:28.896Z,1008.95
2024-05-09T00:16:28.889Z,1008.92
2024-05-09T00:17:29.057Z,1008.97
2024-05-09T00:18:29.186Z,1008.94
2024-05-09T00:19:28.975Z,1008.97
2024-05-09T00:20:36.984Z,1008.95
2024-05-09T00:21:29.883Z,1008.95
2024-05-09T00:22:28.833Z,1008.95
2024-05-09T00:23:29.017Z,1008.92
2024-05-09T00:24:28.832Z,1008.94
2024-05-09T00:25:28.825Z,1008.94
2024-05-09T00:26:28.908Z,1009.01
2024-05-09T00:27:28.812Z,1009.00
2024-05-09T00:28:28.831Z,1008.97
2024-05-09T00:29:28.940Z,1008.98
2024-05-09T00:30:34.144Z,1009.02
2024-05-09T00:31:29.814Z,1009.02
2024-05-09T00:32:28.925Z,1008.96
2024-05-09T00:33:28.980Z,1008.99
2024-05-09T00:34:29.020Z,1009.04
2024-05-09T00:35:28.974Z,1008.99
2024-05-09T00:36:28.807Z,1009.00
2024-05-09T00:37:28.791Z,1009.01
2024-05-09T00:38:28.806Z,1008.94
2024-05-09T00:39:28.756Z,1008.95
2024-05-09T00:40:35.759Z,1008.97
2024-05-09T00:41:30.789Z,1008.94
2024-05-09T00:42:28.727Z,1008.90
2024-05-09T00:43:28.739Z,1009.03
2024-05-09T00:44:28.825Z,1009.01
2024-05-09T00:45:28.749Z,1008.98
2024-05-09T00:46:28.713Z,1008.98
2024-05-09T00:47:28.880Z,1008.97
2024-05-09T00:48:28.758Z,1009.03
2024-05-09T00:49:28.795Z,1008.98
2024-05-09T00:50:35.247Z,1008.98
2024-05-09T00:51:30.721Z,1008.98
2024-05-09T00:52:28.683Z,1008.96
2024-05-09T00:53:28.864Z,1008.96
2024-05-09T00:54:28.677Z,1009.02
2024-05-09T00:55:29.157Z,1009.00
2024-05-09T00:56:28.743Z,1008.94
2024-05-09T00:57:28.640Z,1009.02
2024-05-09T00:58:28.652Z,1009.00
2024-05-09T00:59:28.674Z,1008.98
2024-05-09T01:00:35.739Z,1008.97
2024-05-09T01:01:30.718Z,1009.00
2024-05-09T01:02:28.753Z,1009.05
2024-05-09T01:03:28.730Z,1008.98
2024-05-09T01:04:28.660Z,1009.00
2024-05-09T01:05:28.695Z,1009.00
2024-05-09T01:06:28.616Z,1009.04
2024-05-09T01:07:28.592Z,1009.01
2024-05-09T01:08:28.696Z,1009.05
2024-05-09T01:09:28.610Z,1009.05
2024-05-09T01:10:34.138Z,1009.07
2024-05-09T01:11:29.603Z,1009.02
2024-05-09T01:12:28.671Z,1009.04
2024-05-09T01:13:28.632Z,1009.07
2024-05-09T01:14:28.589Z,1009.12
2024-05-09T01:15:28.539Z,1009.03
2024-05-09T01:16:28.534Z,1009.00
2024-05-09T01:17:28.714Z,1009.07
2024-05-09T01:18:28.568Z,1009.10
2024-05-09T01:19:28.651Z,1009.06
2024-05-09T01:20:37.505Z,1009.06
2024-05-09T01:21:29.522Z,1009.03
2024-05-09T01:22:28.509Z,1009.03
2024-05-09T01:23:28.572Z,1009.02
2024-05-09T01:24:28.518Z,1009.09
2024-05-09T01:25:28.502Z,1009.03
2024-05-09T01:26:28.561Z,1009.06
2024-05-09T01:27:28.464Z,1009.00
2024-05-09T01:28:28.462Z,1009.02
2024-05-09T01:29:28.531Z,1009.07
2024-05-09T01:30:34.394Z,1009.08
2024-05-09T01:31:29.481Z,1009.08
2024-05-09T01:32:28.559Z,1009.06
2024-05-09T01:33:28.614Z,1009.02
2024-05-09T01:34:28.428Z,1009.12
2024-05-09T01:35:28.561Z,1009.08
2024-05-09T01:36:28.423Z,1009.05
2024-05-09T01:37:28.422Z,1009.06
2024-05-09T01:38:28.544Z,1009.14
2024-05-09T01:39:28.408Z,1009.11
2024-05-09T01:40:36.049Z,1009.01
2024-05-09T01:41:30.411Z,1009.01
2024-05-09T01:42:28.394Z,1009.04
2024-05-09T01:43:28.395Z,1009.06
2024-05-09T01:44:28.432Z,1009.04
2024-05-09T01:45:28.399Z,1009.04
2024-05-09T01:46:28.380Z,1009.00
2024-05-09T01:47:29.618Z,1008.96
2024-05-09T01:48:28.514Z,1009.01
2024-05-09T01:49:28.458Z,1008.97
2024-05-09T01:50:36.909Z,1009.01
2024-05-09T01:51:30.370Z,1009.03
2024-05-09T01:52:28.333Z,1009.12
2024-05-09T01:53:28.428Z,1009.16
2024-05-09T01:54:28.320Z,1009.01
2024-05-09T01:55:28.321Z,1009.13
2024-05-09T01:56:28.379Z,1009.14
2024-05-09T01:57:28.291Z,1009.07
2024-05-09T01:58:28.296Z,1009.12
2024-05-09T01:59:28.563Z,1009.09
2024-05-09T02:00:37.110Z,1009.06
2024-05-09T02:01:30.433Z,1008.95
2024-05-09T02:02:29.392Z,1009.05
2024-05-09T02:03:28.550Z,1009.05
2024-05-09T02:04:28.406Z,1009.00
2024-05-09T02:05:28.341Z,1009.03
2024-05-09T02:06:28.270Z,1009.04
2024-05-09T02:07:28.663Z,1009.00
2024-05-09T02:08:28.459Z,1008.99
2024-05-09T02:09:28.229Z,1008.99
2024-05-09T02:10:32.522Z,1009.06
2024-05-09T02:11:30.292Z,1009.05
2024-05-09T02:12:28.285Z,1009.04
2024-05-09T02:13:28.196Z,1009.08
2024-05-09T02:14:28.345Z,1009.06
2024-05-09T02:15:28.214Z,1009.07
2024-05-09T02:16:28.182Z,1009.12
2024-05-09T02:17:28.291Z,1009.10
2024-05-09T02:18:29.286Z,1009.06
2024-05-09T02:19:28.313Z,1009.13
2024-05-09T02:20:34.089Z,1009.11
2024-05-09T02:21:29.177Z,1009.12
2024-05-09T02:22:28.172Z,1009.14
2024-05-09T02:23:28.219Z,1009.10
2024-05-09T02:24:28.212Z,1009.10
2024-05-09T02:25:28.131Z,1009.09
2024-05-09T02:26:28.212Z,1009.17
2024-05-09T02:27:28.125Z,1009.14
2024-05-09T02:28:28.133Z,1009.08
2024-05-09T02:29:28.204Z,1009.13
2024-05-09T02:30:36.355Z,1009.11
2024-05-09T02:31:30.101Z,1009.12
2024-05-09T02:32:28.195Z,1009.15
2024-05-09T02:33:29.236Z,1009.13
2024-05-09T02:34:28.142Z,1009.08
2024-05-09T02:35:28.190Z,1009.13
2024-05-09T02:36:28.078Z,1009.13
2024-05-09T02:37:28.044Z,1009.14
2024-05-09T02:38:28.158Z,1009.17
2024-05-09T02:39:28.047Z,1009.12
2024-05-09T02:40:36.205Z,1009.14
2024-05-09T02:41:29.127Z,1009.12
2024-05-09T02:42:28.033Z,1009.11
2024-05-09T02:43:28.023Z,1009.12
2024-05-09T02:44:28.093Z,1009.14
2024-05-09T02:45:28.018Z,1009.10
2024-05-09T02:46:28.007Z,1009.11
2024-05-09T02:47:28.152Z,1009.11
2024-05-09T02:48:28.114Z,1009.09
2024-05-09T02:49:28.089Z,1009.13
2024-05-09T02:50:34.579Z,1009.09
2024-05-09T02:51:30.009Z,1009.06
2024-05-09T02:52:27.952Z,1009.06
2024-05-09T02:53:30.800Z,1009.09
2024-05-09T02:54:27.946Z,1009.06
2024-05-09T02:55:27.936Z,1009.07
2024-05-09T02:56:28.068Z,1009.07
2024-05-09T02:57:27.938Z,1009.07
2024-05-09T02:58:27.936Z,1009.10
2024-05-09T02:59:27.947Z,1009.13
2024-05-09T03:00:35.284Z,1009.14
2024-05-09T03:01:29.989Z,1009.15
2024-05-09T03:02:27.987Z,1009.12
2024-05-09T03:03:28.174Z,1009.10
2024-05-09T03:04:27.935Z,1009.07
2024-05-09T03:05:27.941Z,1009.10
2024-05-09T03:06:27.917Z,1009.13
2024-05-09T03:07:27.864Z,1009.10
2024-05-09T03:08:27.916Z,1009.15
2024-05-09T03:09:27.857Z,1009.11
2024-05-09T03:10:29.052Z,1009.10
2024-05-09T03:11:30.045Z,1009.08
2024-05-09T03:12:27.894Z,1009.12
2024-05-09T03:13:27.836Z,1009.12
2024-05-09T03:14:27.852Z,1009.09
2024-05-09T03:15:27.840Z,1009.08
2024-05-09T03:16:27.852Z,1009.07
2024-05-09T03:17:27.933Z,1009.09
2024-05-09T03:18:27.910Z,1009.10
2024-05-09T03:19:27.868Z,1009.07
2024-05-09T03:20:33.375Z,1009.06
2024-05-09T03:21:28.798Z,1009.10
2024-05-09T03:22:28.163Z,1009.07
2024-05-09T03:23:27.844Z,1009.08
2024-05-09T03:24:27.760Z,1009.09
2024-05-09T03:25:27.759Z,1009.10
2024-05-09T03:26:27.861Z,1009.03
2024-05-09T03:27:27.769Z,1009.10
2024-05-09T03:28:27.969Z,1009.13
2024-05-09T03:29:27.778Z,1009.10
2024-05-09T03:30:36.063Z,1009.09
2024-05-09T03:31:29.732Z,1009.12
2024-05-09T03:32:27.959Z,1009.08
2024-05-09T03:33:28.074Z,1009.11
2024-05-09T03:34:28.706Z,1009.08
2024-05-09T03:35:27.896Z,1009.10
2024-05-09T03:36:27.695Z,1009.11
2024-05-09T03:37:27.768Z,1009.08
2024-05-09T03:38:27.716Z,1009.09
2024-05-09T03:39:27.688Z,1009.15
2024-05-09T03:40:30.849Z,1009.11
2024-05-09T03:41:27.682Z,1009.18
2024-05-09T03:42:27.691Z,1009.10
2024-05-09T03:43:27.674Z,1009.14
2024-05-09T03:44:27.715Z,1009.19
2024-05-09T03:45:27.646Z,1009.13
2024-05-09T03:46:27.638Z,1009.12
2024-05-09T03:47:27.826Z,1009.16
2024-05-09T03:48:28.384Z,1009.16
2024-05-09T03:49:27.740Z,1009.24
2024-05-09T03:50:33.699Z,1009.14
2024-05-09T03:51:29.616Z,1009.19
2024-05-09T03:52:27.599Z,1009.21
2024-05-09T03:53:27.733Z,1009.18
2024-05-09T03:54:27.608Z,1009.17
2024-05-09T03:55:27.619Z,1009.16
2024-05-09T03:56:27.659Z,1009.12
2024-05-09T03:57:27.587Z,1009.08
2024-05-09T03:58:27.609Z,1009.12
2024-05-09T03:59:27.764Z,1009.10
2024-05-09T04:00:35.215Z,1009.10
2024-05-09T04:01:29.653Z,1009.14
2024-05-09T04:02:27.690Z,1009.14
2024-05-09T04:03:27.779Z,1009.12
2024-05-09T04:04:27.588Z,1009.18
2024-05-09T04:05:27.591Z,1009.11
2024-05-09T04:06:27.554Z,1009.18
2024-05-09T04:07:27.508Z,1009.14
2024-05-09T04:08:27.669Z,1009.12
2024-05-09T04:09:27.504Z,1009.09
2024-05-09T04:10:32.753Z,1009.16
2024-05-09T04:11:29.590Z,1009.13
2024-05-09T04:12:27.558Z,1009.14
2024-05-09T04:13:27.500Z,1009.13
2024-05-09T04:14:28.279Z,1009.15
2024-05-09T04:15:27.477Z,1009.20
2024-05-09T04:16:27.457Z,1009.19
2024-05-09T04:17:27.590Z,1009.22
2024-05-09T04:18:27.543Z,1009.28
2024-05-09T04:19:27.616Z,1009.27
2024-05-09T04:20:36.340Z,1009.23
2024-05-09T04:21:29.434Z,1009.27
2024-05-09T04:22:27.440Z,1009.29
2024-05-09T04:23:27.505Z,1009.33
2024-05-09T04:24:27.410Z,1009.31
2024-05-09T04:25:27.431Z,1009.28
2024-05-09T04:26:27.434Z,1009.34
2024-05-09T04:27:27.392Z,1009.35
2024-05-09T04:28:27.379Z,1009.34
2024-05-09T04:29:27.484Z,1009.37
2024-05-09T04:30:35.982Z,1009.30
2024-05-09T04:31:29.405Z,1009.27
2024-05-09T04:32:27.455Z,1009.30
2024-05-09T04:33:27.555Z,1009.36
2024-05-09T04:34:27.439Z,1009.36
2024-05-09T04:35:27.498Z,1009.36
2024-05-09T04:36:27.353Z,1009.44
2024-05-09T04:37:27.304Z,1009.43
2024-05-09T04:38:27.333Z,1009.40
2024-05-09T04:39:27.322Z,1009.40
2024-05-09T04:40:33.198Z,1009.45
2024-05-09T04:41:29.363Z,1009.37
2024-05-09T04:42:27.324Z,1009.38
2024-05-09T04:43:27.272Z,1009.38
2024-05-09T04:44:27.402Z,1009.41
2024-05-09T04:45:27.278Z,1009.41
2024-05-09T04:46:27.255Z,1009.40
2024-05-09T04:47:27.542Z,1009.43
2024-05-09T04:48:27.600Z,1009.39
2024-05-09T04:49:27.342Z,1009.44
2024-05-09T04:50:35.139Z,1009.42
2024-05-09T04:51:29.240Z,1009.45
2024-05-09T04:52:27.230Z,1009.45
2024-05-09T04:53:27.312Z,1009.43
2024-05-09T04:54:34.155Z,1009.42
2024-05-09T04:55:28.221Z,1009.37
2024-05-09T04:56:27.252Z,1009.39
2024-05-09T04:57:27.207Z,1009.35
2024-05-09T04:58:27.224Z,1009.37
2024-05-09T04:59:27.338Z,1009.40
2024-05-09T05:00:32.674Z,1009.39
2024-05-09T05:01:29.253Z,1009.43
2024-05-09T05:02:27.333Z,1009.39
2024-05-09T05:03:27.386Z,1009.43
2024-05-09T05:04:27.262Z,1009.45
2024-05-09T05:05:27.216Z,1009.34
2024-05-09T05:06:27.204Z,1009.38
2024-05-09T05:07:27.137Z,1009.43
2024-05-09T05:08:27.184Z,1009.40
2024-05-09T05:09:27.119Z,1009.41
2024-05-09T05:10:33.604Z,1009.47
2024-05-09T05:11:29.239Z,1009.45
2024-05-09T05:12:27.314Z,1009.42
2024-05-09T05:13:27.101Z,1009.47
2024-05-09T05:14:27.258Z,1009.45
2024-05-09T05:15:27.127Z,1009.41
2024-05-09T05:16:27.103Z,1009.35
2024-05-09T05:17:27.239Z,1009.40
2024-05-09T05:18:27.707Z,1009.45
2024-05-09T05:19:27.248Z,1009.47
2024-05-09T05:20:32.914Z,1009.46
2024-05-09T05:21:29.090Z,1009.43
2024-05-09T05:22:27.039Z,1009.46
2024-05-09T05:23:27.140Z,1009.49
2024-05-09T05:24:27.011Z,1009.51
2024-05-09T05:25:27.031Z,1009.49
2024-05-09T05:26:27.044Z,1009.50
2024-05-09T05:27:27.002Z,1009.51
2024-05-09T05:28:26.989Z,1009.49
2024-05-09T05:29:27.048Z,1009.48
2024-05-09T05:30:32.548Z,1009.52
2024-05-09T05:31:29.047Z,1009.55
2024-05-09T05:32:27.213Z,1009.56
2024-05-09T05:33:27.202Z,1009.57
2024-05-09T05:34:26.970Z,1009.51
2024-05-09T05:35:27.146Z,1009.49
2024-05-09T05:36:26.967Z,1009.54
2024-05-09T05:37:26.950Z,1009.49
2024-05-09T05:38:28.535Z,1009.54
2024-05-09T05:39:26.928Z,1009.55
2024-05-09T05:40:33.403Z,1009.60
2024-05-09T05:41:29.055Z,1009.59
2024-05-09T05:42:26.960Z,1009.60
2024-05-09T05:43:26.926Z,1009.63
2024-05-09T05:44:27.015Z,1009.56
2024-05-09T05:45:26.904Z,1009.57
2024-05-09T05:46:26.881Z,1009.61
2024-05-09T05:47:26.940Z,1009.62
2024-05-09T05:48:27.110Z,1009.67
2024-05-09T05:49:27.039Z,1009.60
2024-05-09T05:50:32.629Z,1009.63
2024-05-09T05:51:28.878Z,1009.56
2024-05-09T05:52:26.923Z,1009.59
2024-05-09T05:53:26.860Z,1009.54
2024-05-09T05:54:26.851Z,1009.59
2024-05-09T05:55:27.846Z,1009.57
2024-05-09T05:56:26.881Z,1009.61
2024-05-09T05:57:26.837Z,1009.57
2024-05-09T05:58:26.845Z,1009.58
2024-05-09T05:59:26.840Z,1009.59
2024-05-09T06:00:34.397Z,1009.71
2024-05-09T06:01:27.848Z,1009.65
2024-05-09T06:02:26.922Z,1009.61
2024-05-09T06:03:26.886Z,1009.66
2024-05-09T06:04:26.808Z,1009.69
2024-05-09T06:05:27.776Z,1009.69
2024-05-09T06:06:26.817Z,1009.63
2024-05-09T06:07:26.786Z,1009.63
2024-05-09T06:08:30.180Z,1009.59
2024-05-09T06:09:27.755Z,1009.57
2024-05-09T06:10:35.067Z,1009.54
2024-05-09T06:11:27.787Z,1009.55
2024-05-09T06:12:26.847Z,1009.50
2024-05-09T06:13:26.718Z,1009.58
2024-05-09T06:14:26.915Z,1009.56
2024-05-09T06:15:26.764Z,1009.55
2024-05-09T06:16:26.714Z,1009.53
2024-05-09T06:17:26.823Z,1009.56
2024-05-09T06:18:26.986Z,1009.53
2024-05-09T06:19:26.804Z,1009.53
2024-05-09T06:20:34.385Z,1009.54
2024-05-09T06:21:28.774Z,1009.53
2024-05-09T06:22:26.673Z,1009.57
2024-05-09T06:23:26.761Z,1009.56
2024-05-09T06:24:26.663Z,1009.57
2024-05-09T06:25:26.659Z,1009.58
2024-05-09T06:26:26.816Z,1009.55
2024-05-09T06:27:26.663Z,1009.55
2024-05-09T06:28:26.640Z,1009.53
2024-05-09T06:29:26.738Z,1009.52
2024-05-09T06:30:35.194Z,1009.56
2024-05-09T06:31:27.647Z,1009.56
2024-05-09T06:32:26.784Z,1009.55
2024-05-09T06:33:26.933Z,1009.56
2024-05-09T06:34:26.722Z,1009.57
2024-05-09T06:35:26.612Z,1009.58
2024-05-09T06:36:26.655Z,1009.63
2024-05-09T06:37:26.600Z,1009.57
2024-05-09T06:38:26.662Z,1009.59
2024-05-09T06:39:26.770Z,1009.58
2024-05-09T06:40:35.757Z,1009.62
2024-05-09T06:41:27.657Z,1009.58
2024-05-09T06:42:26.537Z,1009.57
2024-05-09T06:43:26.550Z,1009.54
2024-05-09T06:44:26.594Z,1009.55
2024-05-09T06:45:26.518Z,1009.53
2024-05-09T06:46:26.548Z,1009.51
2024-05-09T06:47:26.668Z,1009.55
2024-05-09T06:48:26.748Z,1009.54
2024-05-09T06:49:26.654Z,1009.54
2024-05-09T06:50:28.422Z,1009.56
2024-05-09T06:51:28.490Z,1009.54
2024-05-09T06:52:26.490Z,1009.58
2024-05-09T06:53:26.552Z,1009.56
2024-05-09T06:54:26.495Z,1009.51
2024-05-09T06:55:26.492Z,1009.50
2024-05-09T06:56:26.626Z,1009.52
2024-05-09T06:57:26.466Z,1009.51
2024-05-09T06:58:26.502Z,1009.49
2024-05-09T06:59:26.519Z,1009.53
2024-05-09T07:00:35.216Z,1009.53
2024-05-09T07:01:28.460Z,1009.54
2024-05-09T07:02:26.500Z,1009.56
2024-05-09T07:03:26.748Z,1009.54
2024-05-09T07:04:26.759Z,1009.54
2024-05-09T07:05:26.764Z,1009.54
2024-05-09T07:06:26.401Z,1009.54
2024-05-09T07:07:26.423Z,1009.51
2024-05-09T07:08:26.464Z,1009.49
2024-05-09T07:09:26.378Z,1009.50
2024-05-09T07:10:32.809Z,1009.58
2024-05-09T07:11:27.456Z,1009.53
2024-05-09T07:12:26.473Z,1009.59
2024-05-09T07:13:26.513Z,1009.61
2024-05-09T07:14:26.429Z,1009.61
2024-05-09T07:15:26.331Z,1009.59
2024-05-09T07:16:26.307Z,1009.61
2024-05-09T07:17:26.524Z,1009.56
2024-05-09T07:18:26.631Z,1009.53
2024-05-09T07:19:26.408Z,1009.54
2024-05-09T07:20:33.858Z,1009.55
2024-05-09T07:21:28.307Z,1009.54
2024-05-09T07:22:26.287Z,1009.52
2024-05-09T07:23:26.320Z,1009.52
2024-05-09T07:24:26.325Z,1009.53
2024-05-09T07:25:26.266Z,1009.47
2024-05-09T07:26:26.290Z,1009.46
2024-05-09T07:27:26.273Z,1009.48
2024-05-09T07:28:26.263Z,1009.47
2024-05-09T07:29:27.071Z,1009.46
2024-05-09T07:30:30.932Z,1009.47
2024-05-09T07:31:28.425Z,1009.42
2024-05-09T07:32:26.853Z,1009.43
2024-05-09T07:33:27.042Z,1009.44
2024-05-09T07:34:26.378Z,1009.44
2024-05-09T07:35:26.336Z,1009.51
2024-05-09T07:36:26.199Z,1009.48
2024-05-09T07:37:26.232Z,1009.47
2024-05-09T07:38:26.262Z,1009.47
2024-05-09T07:39:26.197Z,1009.49
2024-05-09T07:40:33.170Z,1009.43
2024-05-09T07:41:28.671Z,1009.41
2024-05-09T07:42:26.175Z,1009.40
2024-05-09T07:43:26.299Z,1009.41
2024-05-09T07:44:26.239Z,1009.39
2024-05-09T07:45:43.314Z,1009.45
2024-05-09T07:47:34.798Z,1009.41
2024-05-09T07:50:00.836Z,1009.35
2024-05-09T07:53:39.889Z,1009.34
2024-05-09T07:54:28.321Z,1009.37
2024-05-09T07:55:26.335Z,1009.35
2024-05-09T07:56:26.626Z,1009.36
2024-05-09T07:57:26.106Z,1009.39
2024-05-09T07:58:26.079Z,1009.35
2024-05-09T07:59:26.080Z,1009.29
2024-05-09T08:00:31.081Z,1009.32
2024-05-09T08:01:28.228Z,1009.31
2024-05-09T08:02:26.233Z,1009.29
2024-05-09T08:03:26.075Z,1009.35
2024-05-09T08:04:26.877Z,1009.33
2024-05-09T08:05:27.172Z,1009.29
2024-05-09T08:06:26.041Z,1009.31
2024-05-09T08:07:27.299Z,1009.33
2024-05-09T08:08:26.020Z,1009.29
2024-05-09T08:09:26.072Z,1009.28
2024-05-09T08:10:28.947Z,1009.33
2024-05-09T08:11:27.053Z,1009.31
2024-05-09T08:12:26.009Z,1009.30
2024-05-09T08:13:26.044Z,1009.29
2024-05-09T08:14:26.111Z,1009.24
2024-05-09T08:15:25.972Z,1009.25
2024-05-09T08:16:26.167Z,1009.26
2024-05-09T08:17:25.995Z,1009.25
2024-05-09T08:18:26.121Z,1009.25
2024-05-09T08:19:25.953Z,1009.22
2024-05-09T08:20:31.128Z,1009.21
2024-05-09T08:21:28.016Z,1009.21
2024-05-09T08:22:25.902Z,1009.14
2024-05-09T08:23:25.884Z,1009.17
2024-05-09T08:24:25.890Z,1009.20
2024-05-09T08:25:26.014Z,1009.19
2024-05-09T08:26:25.891Z,1009.23
2024-05-09T08:27:25.894Z,1009.22
2024-05-09T08:28:25.911Z,1009.22
2024-05-09T08:29:25.885Z,1009.16
2024-05-09T08:30:32.860Z,1009.16
2024-05-09T08:31:27.014Z,1009.16
2024-05-09T08:32:25.883Z,1009.14
2024-05-09T08:33:25.943Z,1009.13
2024-05-09T08:34:25.952Z,1009.16
2024-05-09T08:35:27.597Z,1009.09
2024-05-09T08:36:25.824Z,1009.14
2024-05-09T08:37:29.541Z,1009.02
2024-05-09T08:38:26.850Z,1009.04
2024-05-09T08:39:25.847Z,1009.06
2024-05-09T08:40:33.332Z,1009.07
2024-05-09T08:41:27.867Z,1009.05
2024-05-09T08:42:25.836Z,1008.99
2024-05-09T08:43:26.928Z,1009.09
2024-05-09T08:44:25.758Z,1009.05
2024-05-09T08:45:25.847Z,1009.05
2024-05-09T08:46:25.852Z,1009.06
2024-05-09T08:47:27.251Z,1009.11
2024-05-09T08:48:25.920Z,1009.09
2024-05-09T08:49:25.878Z,1009.10
2024-05-09T08:50:32.198Z,1009.10
2024-05-09T08:51:27.758Z,1009.12
2024-05-09T08:52:25.780Z,1009.09
2024-05-09T08:53:25.719Z,1009.11
2024-05-09T08:54:25.748Z,1009.07
2024-05-09T08:55:25.817Z,1009.09
2024-05-09T08:56:25.696Z,1009.12
2024-05-09T08:57:25.773Z,1009.09
2024-05-09T08:58:25.798Z,1009.08
2024-05-09T08:59:25.724Z,1009.00
2024-05-09T09:00:33.930Z,1008.99
2024-05-09T09:01:27.788Z,1008.99
2024-05-09T09:02:25.775Z,1008.95
2024-05-09T09:03:25.987Z,1008.96
2024-05-09T09:04:25.737Z,1008.98
2024-05-09T09:05:25.832Z,1009.00
2024-05-09T09:06:25.692Z,1008.93
2024-05-09T09:07:25.749Z,1008.92
2024-05-09T09:08:25.601Z,1008.91
2024-05-09T09:09:25.655Z,1008.98
2024-05-09T09:10:31.755Z,1008.95
2024-05-09T09:11:27.322Z,1008.97
2024-05-09T09:12:25.586Z,1008.87
2024-05-09T09:13:25.630Z,1008.91
2024-05-09T09:14:25.596Z,1008.90
2024-05-09T09:15:25.592Z,1008.91
2024-05-09T09:16:25.725Z,1008.87
2024-05-09T09:17:25.600Z,1008.90
2024-05-09T09:18:26.987Z,1008.90
2024-05-09T09:19:25.678Z,1008.86
2024-05-09T09:20:33.280Z,1008.86
2024-05-09T09:21:27.622Z,1008.90
2024-05-09T09:22:25.555Z,1008.89
2024-05-09T09:23:25.597Z,1008.90
2024-05-09T09:24:25.497Z,1008.88
2024-05-09T09:25:25.580Z,1008.91
2024-05-09T09:26:26.555Z,1008.85
2024-05-09T09:27:25.548Z,1008.90
2024-05-09T09:28:25.488Z,1008.86
2024-05-09T09:29:25.528Z,1008.84
2024-05-09T09:30:34.772Z,1008.83
2024-05-09T09:31:27.527Z,1008.80
2024-05-09T09:32:25.556Z,1008.80
2024-05-09T09:33:25.629Z,1008.86
2024-05-09T09:34:25.596Z,1008.85
2024-05-09T09:35:25.451Z,1008.78
2024-05-09T09:36:25.451Z,1008.84
2024-05-09T09:37:25.423Z,1008.85
2024-05-09T09:38:25.483Z,1008.84
2024-05-09T09:39:25.436Z,1008.88
2024-05-09T09:40:31.367Z,1008.79
2024-05-09T09:41:27.425Z,1008.78
2024-05-09T09:42:25.397Z,1008.77
2024-05-09T09:43:25.537Z,1008.78
2024-05-09T09:44:25.389Z,1008.77
2024-05-09T09:45:25.390Z,1008.80
2024-05-09T09:46:25.531Z,1008.73
2024-05-09T09:47:25.489Z,1008.78
2024-05-09T09:48:25.466Z,1008.80
2024-05-09T09:49:26.416Z,1008.78
2024-05-09T09:50:33.250Z,1008.75
2024-05-09T09:51:27.429Z,1008.70
2024-05-09T09:52:25.404Z,1008.70
2024-05-09T09:53:25.352Z,1008.70
2024-05-09T09:54:25.343Z,1008.69
2024-05-09T09:55:25.373Z,1008.63
2024-05-09T09:56:25.323Z,1008.67
2024-05-09T09:57:25.315Z,1008.69
2024-05-09T09:58:25.453Z,1008.67
2024-05-09T09:59:25.303Z,1008.67
2024-05-09T10:00:30.667Z,1008.63
2024-05-09T10:01:26.493Z,1008.66
2024-05-09T10:02:25.456Z,1008.63
2024-05-09T10:03:25.412Z,1008.74
2024-05-09T10:04:25.372Z,1008.71
2024-05-09T10:05:25.735Z,1008.66
2024-05-09T10:06:25.378Z,1008.60
2024-05-09T10:07:25.268Z,1008.61
2024-05-09T10:08:25.374Z,1008.60
2024-05-09T10:09:25.265Z,1008.59
2024-05-09T10:10:31.519Z,1008.60
2024-05-09T10:11:27.956Z,1008.59
2024-05-09T10:12:25.292Z,1008.62
2024-05-09T10:13:25.397Z,1008.56
2024-05-09T10:14:25.271Z,1008.62
2024-05-09T10:15:25.223Z,1008.56
2024-05-09T10:16:25.279Z,1008.60
2024-05-09T10:17:25.470Z,1008.57
2024-05-09T10:18:28.366Z,1008.55
2024-05-09T10:19:25.379Z,1008.54
2024-05-09T10:20:30.642Z,1008.51
2024-05-09T10:21:26.218Z,1008.52
2024-05-09T10:22:25.232Z,1008.48
2024-05-09T10:23:25.716Z,1008.48
2024-05-09T10:24:25.188Z,1008.51
2024-05-09T10:25:25.355Z,1008.48
2024-05-09T10:26:25.760Z,1008.46
2024-05-09T10:27:25.178Z,1008.43
2024-05-09T10:28:25.604Z,1008.45
2024-05-09T10:29:25.193Z,1008.41
2024-05-09T10:30:33.434Z,1008.43
2024-05-09T10:31:27.212Z,1008.38
2024-05-09T10:32:25.279Z,1008.36
2024-05-09T10:33:25.226Z,1008.30
2024-05-09T10:34:25.472Z,1008.34
2024-05-09T10:35:25.489Z,1008.24
2024-05-09T10:36:25.214Z,1008.27
2024-05-09T10:37:25.299Z,1008.26
2024-05-09T10:38:25.148Z,1008.26
2024-05-09T10:39:25.142Z,1008.18
2024-05-09T10:40:31.006Z,1008.21
2024-05-09T10:41:27.126Z,1008.19
2024-05-09T10:42:25.151Z,1008.19
2024-05-09T10:43:25.205Z,1008.22
2024-05-09T10:44:25.132Z,1008.17
2024-05-09T10:45:25.093Z,1008.15
2024-05-09T10:46:25.123Z,1008.20
2024-05-09T10:47:25.296Z,1008.11
2024-05-09T10:48:25.159Z,1008.04
2024-05-09T10:49:25.142Z,1008.18
2024-05-09T10:50:28.765Z,1008.08
2024-05-09T10:51:27.059Z,1008.04
2024-05-09T10:52:25.120Z,1008.10
2024-05-09T10:53:25.056Z,1008.11
2024-05-09T10:54:25.074Z,1008.04
2024-05-09T10:55:25.114Z,1008.11
2024-05-09T10:56:25.693Z,1008.08
2024-05-09T10:57:25.010Z,1008.05
2024-05-09T10:58:25.009Z,1008.08
2024-05-09T10:59:25.005Z,1008.08
2024-05-09T11:00:30.674Z,1008.03
2024-05-09T11:01:27.113Z,1008.06
2024-05-09T11:02:25.082Z,1008.06
2024-05-09T11:03:25.022Z,1008.03
2024-05-09T11:04:25.149Z,1008.02
2024-05-09T11:05:25.024Z,1008.00
2024-05-09T11:06:24.956Z,1008.03
2024-05-09T11:07:25.143Z,1008.05
2024-05-09T11:08:24.960Z,1008.03
2024-05-09T11:09:24.920Z,1008.06
2024-05-09T11:10:31.589Z,1008.01
2024-05-09T11:11:26.070Z,1008.00
2024-05-09T11:12:25.039Z,1007.96
2024-05-09T11:13:24.914Z,1007.99
2024-05-09T11:14:24.935Z,1007.98
2024-05-09T11:15:24.888Z,1007.95
2024-05-09T11:16:26.749Z,1007.92
2024-05-09T11:17:24.976Z,1007.81
2024-05-09T11:18:26.190Z,1007.85
2024-05-09T11:19:25.088Z,1007.86
2024-05-09T11:20:29.675Z,1007.82
2024-05-09T11:21:27.085Z,1007.86
2024-05-09T11:22:24.887Z,1007.83
2024-05-09T11:23:24.814Z,1007.80
2024-05-09T11:24:24.824Z,1007.77
2024-05-09T11:25:24.857Z,1007.75
2024-05-09T11:26:24.818Z,1007.85
2024-05-09T11:27:25.232Z,1007.82
2024-05-09T11:28:24.890Z,1007.79
2024-05-09T11:29:24.825Z,1007.79
2024-05-09T11:30:30.075Z,1007.80
2024-05-09T11:31:26.045Z,1007.82
2024-05-09T11:32:24.996Z,1007.74
2024-05-09T11:33:24.824Z,1007.72
2024-05-09T11:34:24.820Z,1007.67
2024-05-09T11:35:24.765Z,1007.64
2024-05-09T11:36:24.766Z,1007.70
2024-05-09T11:37:24.788Z,1007.72
2024-05-09T11:38:24.725Z,1007.67
2024-05-09T11:39:25.732Z,1007.60
2024-05-09T11:40:28.172Z,1007.59
2024-05-09T11:41:26.724Z,1007.61
2024-05-09T11:42:24.694Z,1007.66
2024-05-09T11:43:24.750Z,1007.63
2024-05-09T11:44:24.712Z,1007.50
2024-05-09T11:45:24.702Z,1007.54
2024-05-09T11:46:24.730Z,1007.64
2024-05-09T11:47:24.769Z,1007.64
2024-05-09T11:48:24.834Z,1007.62
2024-05-09T11:49:26.834Z,1007.65
2024-05-09T11:50:29.964Z,1007.62
2024-05-09T11:51:26.663Z,1007.58
2024-05-09T11:52:24.656Z,1007.60
2024-05-09T11:53:24.656Z,1007.62
2024-05-09T11:54:24.661Z,1007.57
2024-05-09T11:55:27.781Z,1007.53
2024-05-09T11:56:25.675Z,1007.52
2024-05-09T11:57:24.617Z,1007.54
2024-05-09T11:58:24.720Z,1007.53
2024-05-09T11:59:24.629Z,1007.47
2024-05-09T12:00:32.973Z,1007.46
2024-05-09T12:01:27.879Z,1007.49
2024-05-09T12:02:25.687Z,1007.45
2024-05-09T12:03:24.702Z,1007.53
2024-05-09T12:04:24.775Z,1007.41
2024-05-09T12:05:24.836Z,1007.46
2024-05-09T12:06:24.612Z,1007.53
2024-05-09T12:07:24.640Z,1007.40
2024-05-09T12:08:24.640Z,1007.34
2024-05-09T12:09:24.563Z,1007.32
2024-05-09T12:10:32.117Z,1007.29